createdAt,value
2022-08-07T00:02:40.471Z,25.88
2022-08-07T00:07:47.914Z,25.84
2022-08-07T00:13:00.635Z,25.62
2022-08-07T00:18:05.709Z,25.41
2022-08-07T00:23:09.398Z,25.23
2022-08-07T00:28:15.568Z,24.93
2022-08-07T00:33:19.176Z,24.68
2022-08-07T00:38:31.302Z,24.50
2022-08-07T00:43:59.373Z,24.43
2022-08-07T00:49:02.063Z,24.27
2022-08-07T00:54:06.214Z,24.14
2022-08-07T00:59:11.504Z,23.88
2022-08-07T01:04:24.538Z,23.70
2022-08-07T01:10:03.971Z,23.71
2022-08-07T01:14:57.098Z,23.53
2022-08-07T01:20:09.027Z,23.49
2022-08-07T01:25:54.642Z,23.58
2022-08-07T01:30:40.880Z,23.45
2022-08-07T01:35:54.151Z,23.38
2022-08-07T01:41:12.173Z,23.27
2022-08-07T01:46:31.256Z,23.07
2022-08-07T01:52:03.379Z,23.08
2022-08-07T01:57:08.287Z,22.96
2022-08-07T02:02:32.906Z,22.69
2022-08-07T02:07:50.512Z,22.56
2022-08-07T02:13:00.623Z,22.32
2022-08-07T02:18:06.633Z,22.17
2022-08-07T02:23:11.709Z,22.10
2022-08-07T02:28:25.418Z,22.04
2022-08-07T02:33:32.900Z,21.65
2022-08-07T02:38:57.801Z,21.58
2022-08-07T02:44:05.166Z,21.44
2022-08-07T02:49:08.844Z,21.36
2022-08-07T02:54:35.678Z,21.21
2022-08-07T02:59:43.321Z,21.05
2022-08-07T03:05:05.122Z,21.04
2022-08-07T03:10:12.071Z,21.08
2022-08-07T03:15:47.452Z,21.17
2022-08-07T03:20:45.144Z,21.12
2022-08-07T03:25:58.102Z,20.81
2022-08-07T03:31:07.056Z,20.98
2022-08-07T03:36:15.019Z,20.87
2022-08-07T03:41:19.845Z,20.65
2022-08-07T03:47:12.977Z,20.50
2022-08-07T03:52:26.214Z,20.24
2022-08-07T03:58:32.891Z,20.21
2022-08-07T04:02:57.765Z,19.94
2022-08-07T04:08:01.684Z,20.02
2022-08-07T04:13:05.948Z,19.85
2022-08-07T04:18:57.906Z,19.74
2022-08-07T04:23:43.931Z,19.53
2022-08-07T04:29:01.491Z,19.51
2022-08-07T04:34:16.490Z,19.76
2022-08-07T04:39:25.853Z,19.79
2022-08-07T04:44:29.960Z,19.59
2022-08-07T04:49:58.043Z,19.40
2022-08-07T04:55:34.972Z,19.30
2022-08-07T05:00:48.342Z,19.22
2022-08-07T05:06:19.793Z,19.08
2022-08-07T05:11:57.476Z,18.83
2022-08-07T05:17:01.442Z,18.73
2022-08-07T05:22:13.908Z,18.63
2022-08-07T05:28:16.662Z,18.61
2022-08-07T05:32:59.573Z,18.46
2022-08-07T05:38:08.614Z,18.36
2022-08-07T05:43:13.473Z,18.28
2022-08-07T05:48:20.760Z,18.14
2022-08-07T05:54:12.475Z,18.04
2022-08-07T05:58:56.514Z,17.99
2022-08-07T06:04:05.152Z,17.94
2022-08-07T06:09:10.973Z,17.85
2022-08-07T06:14:21.375Z,17.81
2022-08-07T06:19:52.253Z,17.72
2022-08-07T06:25:01.141Z,17.64
2022-08-07T06:30:05.902Z,17.53
2022-08-07T06:35:30.651Z,17.49
2022-08-07T06:40:54.950Z,17.47
2022-08-07T06:46:00.985Z,17.36
2022-08-07T06:51:09.552Z,17.24
2022-08-07T06:56:17.522Z,17.21
2022-08-07T07:01:22.016Z,17.04
2022-08-07T07:06:27.445Z,16.95
2022-08-07T07:12:08.162Z,16.98
2022-08-07T07:17:00.608Z,16.85
2022-08-07T07:22:33.789Z,16.80
2022-08-07T07:27:35.617Z,16.80
2022-08-07T07:33:01.159Z,16.82
2022-08-07T07:38:07.814Z,16.83
2022-08-07T07:43:27.718Z,16.87
2022-08-07T07:48:45.520Z,16.98
2022-08-07T07:53:52.889Z,17.01
2022-08-07T07:59:01.390Z,16.92
2022-08-07T08:04:10.874Z,16.78
2022-08-07T08:09:18.004Z,16.81
2022-08-07T08:14:24.661Z,16.78
2022-08-07T08:20:18.465Z,16.80
2022-08-07T08:25:04.692Z,16.53
2022-08-07T08:30:26.547Z,16.37
2022-08-07T08:35:39.027Z,16.37
2022-08-07T08:40:54.509Z,16.38
2022-08-07T08:46:10.564Z,16.24
2022-08-07T08:51:26.223Z,16.28
2022-08-07T08:56:48.342Z,16.35
2022-08-07T09:02:01.646Z,16.31
2022-08-07T09:07:12.537Z,16.27
2022-08-07T09:12:38.657Z,16.26
2022-08-07T09:17:59.240Z,16.15
2022-08-07T09:24:33.253Z,16.09
2022-08-07T09:30:06.063Z,15.99
2022-08-07T09:34:21.382Z,15.95
2022-08-07T09:39:54.626Z,16.00
2022-08-07T09:47:23.901Z,16.01
2022-08-07T09:50:51.550Z,15.91
2022-08-07T09:56:37.624Z,15.95
2022-08-07T10:02:01.718Z,15.82
2022-08-07T10:07:25.989Z,15.86
2022-08-07T10:13:06.092Z,15.87
2022-08-07T10:18:35.385Z,15.89
2022-08-07T10:24:05.546Z,15.84
2022-08-07T10:29:30.323Z,15.82
2022-08-07T10:34:47.946Z,15.78
2022-08-07T10:40:06.095Z,15.85
2022-08-07T10:45:45.385Z,15.81
2022-08-07T10:50:55.091Z,15.88
2022-08-07T10:56:11.118Z,15.80
2022-08-07T11:01:51.951Z,15.78
2022-08-07T11:07:14.922Z,15.88
2022-08-07T11:12:35.303Z,15.89
2022-08-07T11:17:47.333Z,15.87
2022-08-07T11:23:02.336Z,15.92
2022-08-07T11:28:15.513Z,15.82
2022-08-07T11:33:59.909Z,15.73
2022-08-07T11:39:06.923Z,15.78
2022-08-07T11:44:21.241Z,15.69
2022-08-07T11:50:25.510Z,15.59
2022-08-07T11:56:09.209Z,15.72
2022-08-07T12:01:02.279Z,15.94
2022-08-07T12:06:37.739Z,15.95
2022-08-07T12:12:09.028Z,16.06
2022-08-07T12:17:19.939Z,16.08
2022-08-07T12:22:47.191Z,16.16
2022-08-07T12:28:09.478Z,16.18
2022-08-07T12:33:28.293Z,16.14
2022-08-07T12:38:42.492Z,16.06
2022-08-07T12:44:04.085Z,16.25
2022-08-07T12:49:25.518Z,16.06
2022-08-07T12:54:55.018Z,16.02
2022-08-07T13:00:03.050Z,16.02
2022-08-07T13:06:03.158Z,16.05
2022-08-07T13:11:03.754Z,16.16
2022-08-07T13:16:15.808Z,16.33
2022-08-07T13:21:37.291Z,16.46
2022-08-07T13:26:56.999Z,16.46
2022-08-07T13:32:31.095Z,16.55
2022-08-07T13:37:42.932Z,16.60
2022-08-07T13:43:02.393Z,16.90
2022-08-07T13:48:10.325Z,16.81
2022-08-07T13:53:23.765Z,16.97
2022-08-07T13:58:31.459Z,17.02
2022-08-07T14:04:06.699Z,17.13
2022-08-07T14:09:04.545Z,17.11
2022-08-07T14:14:13.443Z,17.12
2022-08-07T14:20:39.921Z,17.18
2022-08-07T14:24:51.994Z,17.28
2022-08-07T14:30:10.186Z,17.35
2022-08-07T14:35:43.147Z,17.45
2022-08-07T14:40:49.494Z,17.54
2022-08-07T14:45:56.163Z,17.69
2022-08-07T14:51:01.829Z,17.87
2022-08-07T14:56:13.125Z,17.88
2022-08-07T15:01:21.727Z,18.01
2022-08-07T15:06:28.382Z,18.13
2022-08-07T15:11:48.859Z,18.24
2022-08-07T15:17:00.698Z,18.38
2022-08-07T15:22:10.133Z,18.41
2022-08-07T15:27:30.005Z,18.46
2022-08-07T15:54:25.841Z,19.92
2022-08-07T15:59:39.100Z,20.80
2022-08-07T16:04:44.298Z,21.13
2022-08-07T16:09:52.675Z,21.38
2022-08-07T16:15:07.518Z,21.85
2022-08-07T16:20:34.175Z,21.90
2022-08-07T16:25:48.867Z,22.44
2022-08-07T16:31:10.544Z,23.74
2022-08-07T16:36:31.366Z,24.55
2022-08-07T16:41:54.333Z,25.24
2022-08-07T16:47:40.249Z,25.44
2022-08-07T16:54:01.913Z,26.03
2022-08-07T16:59:10.524Z,26.32
2022-08-07T17:04:29.557Z,25.81
2022-08-07T17:10:05.965Z,26.38
2022-08-07T17:15:20.290Z,26.48
2022-08-07T17:20:32.838Z,26.73
2022-08-07T17:25:52.440Z,26.77
2022-08-07T17:31:16.366Z,26.99
2022-08-07T17:36:29.241Z,27.14
2022-08-07T17:42:04.955Z,27.41
2022-08-07T17:47:16.810Z,27.63
2022-08-07T17:52:41.529Z,27.61
2022-08-07T17:57:58.375Z,27.63
2022-08-07T18:03:18.086Z,27.62
2022-08-07T18:08:31.158Z,27.66
2022-08-07T18:13:45.659Z,27.65
2022-08-07T18:21:04.223Z,27.68
2022-08-07T18:24:34.014Z,27.79
2022-08-07T18:30:07.660Z,28.36
2022-08-07T18:35:22.188Z,28.28
2022-08-07T18:40:43.979Z,28.08
2022-08-07T18:46:24.637Z,28.19
2022-08-07T18:52:25.689Z,28.52
2022-08-07T18:57:29.252Z,28.51
2022-08-07T19:02:43.152Z,28.75
2022-08-07T19:07:58.737Z,28.79
2022-08-07T19:13:11.598Z,28.88
2022-08-07T19:18:34.981Z,29.00
2022-08-07T19:23:58.960Z,29.18
2022-08-07T19:30:55.625Z,29.38
2022-08-07T19:34:32.484Z,29.51
2022-08-07T19:39:57.493Z,29.84
2022-08-07T19:45:13.321Z,29.53
2022-08-07T19:50:44.001Z,30.03
2022-08-07T19:55:57.684Z,30.28
2022-08-07T20:01:04.199Z,30.23
2022-08-07T20:06:28.529Z,30.67
2022-08-07T20:12:22.733Z,30.58
2022-08-07T20:17:04.843Z,30.16
2022-08-07T20:22:12.044Z,29.47
2022-08-07T20:27:42.984Z,29.10
2022-08-07T20:32:45.488Z,28.58
2022-08-07T20:37:59.025Z,28.90
2022-08-07T20:43:14.489Z,28.82
2022-08-07T20:48:29.894Z,28.99
2022-08-07T20:54:03.984Z,28.70
2022-08-07T20:59:02.601Z,29.07
2022-08-07T21:04:21.832Z,29.45
2022-08-07T21:09:51.507Z,29.67
2022-08-07T21:14:59.050Z,29.99
2022-08-07T21:20:11.111Z,30.19
2022-08-07T21:25:30.771Z,30.24
2022-08-07T21:30:55.410Z,29.99
2022-08-07T21:36:12.073Z,30.04
2022-08-07T21:41:51.965Z,29.58
2022-08-07T21:47:12.311Z,30.01
2022-08-07T21:52:33.587Z,30.11
2022-08-07T21:58:03.103Z,29.95
2022-08-07T22:03:17.226Z,29.37
2022-08-07T22:08:43.829Z,29.07
2022-08-07T22:13:55.174Z,29.29
2022-08-07T22:19:07.486Z,28.95
2022-08-07T22:24:18.243Z,28.58
2022-08-07T22:29:34.070Z,28.77
2022-08-07T22:34:54.951Z,28.70
2022-08-07T22:40:09.872Z,28.70
2022-08-07T22:46:40.990Z,28.53
2022-08-07T22:51:07.669Z,28.79
2022-08-07T22:56:15.715Z,28.67
2022-08-07T23:01:49.921Z,28.61
2022-08-07T23:07:40.112Z,28.55
2022-08-07T23:12:55.056Z,28.54
2022-08-07T23:18:10.044Z,28.58
2022-08-07T23:24:04.203Z,28.48
2022-08-07T23:29:17.125Z,28.00
2022-08-07T23:34:54.231Z,27.48
2022-08-07T23:40:11.837Z,27.39
2022-08-07T23:45:33.035Z,27.15
2022-08-07T23:50:58.882Z,26.66
2022-08-07T23:56:14.196Z,26.35
